Time;durP1;ratioP1;P1;durP2;ratioP2;P2;SDS_P1;SDS_P2;PMS_P1;PMS_P2;Temp;Humidity;BMP_temperature;BMP_pressure;BME280_temperature;BME280_humidity;BME280_pressure;Samples;Min_cycle;Max_cycle;Signal;HPM_P1;HPM_P2
2023/01/24 00:01:22;;;;;;;12.18;8.68;;;5.00;99.90;;;;;;5037241;28;20782;-75
2023/01/24 00:03:50;;;;;;;13.40;9.10;;;5.00;99.90;;;;;;5037040;28;20170;-75
2023/01/24 00:06:16;;;;;;;12.35;8.35;;;5.10;99.90;;;;;;5023893;28;20762;-75
2023/01/24 00:08:42;;;;;;;11.30;8.73;;;5.10;99.90;;;;;;5000905;28;20625;-75
2023/01/24 00:11:11;;;;;;;10.37;7.83;;;5.10;99.90;;;;;;5020690;28;20192;-74
2023/01/24 00:13:39;;;;;;;12.23;8.82;;;5.10;99.90;;;;;;5054553;28;20931;-74
2023/01/24 00:16:07;;;;;;;10.57;8.40;;;5.10;99.90;;;;;;5036981;28;20276;-75
2023/01/24 00:18:36;;;;;;;11.13;7.93;;;5.10;99.90;;;;;;5020359;28;20242;-74
2023/01/24 00:21:05;;;;;;;13.00;8.70;;;5.10;99.90;;;;;;5036680;28;20610;-74
2023/01/24 00:23:31;;;;;;;11.75;8.27;;;5.10;99.90;;;;;;5054467;28;20486;-73
2023/01/24 00:26:10;;;;;;;10.25;8.40;;;5.10;99.90;;;;;;5037992;28;20206;-73
2023/01/24 00:28:39;;;;;;;10.77;7.90;;;5.10;99.90;;;;;;5035801;28;20565;-73
2023/01/24 00:31:07;;;;;;;13.73;9.05;;;5.10;99.90;;;;;;5036677;28;20244;-74
2023/01/24 00:33:34;;;;;;;11.57;8.27;;;5.10;99.90;;;;;;5054373;28;20649;-74
2023/01/24 00:36:01;;;;;;;9.70;7.88;;;5.10;99.90;;;;;;5020105;28;20204;-74
2023/01/24 00:38:38;;;;;;;13.60;9.20;;;5.10;99.90;;;;;;5037637;28;20286;-74
2023/01/24 00:41:08;;;;;;;10.27;8.23;;;5.10;99.90;;;;;;5036321;28;20184;-74
2023/01/24 00:43:35;;;;;;;13.05;8.65;;;5.10;99.90;;;;;;5054000;28;20169;-74
2023/01/24 00:46:04;;;;;;;14.20;9.10;;;5.10;99.90;;;;;;5019300;28;20200;-74
2023/01/24 00:48:33;;;;;;;11.43;7.65;;;5.10;99.90;;;;;;5036244;28;20178;-73
2023/01/24 00:50:59;;;;;;;13.15;8.73;;;5.10;99.90;;;;;;5019744;28;20565;-74
2023/01/24 00:53:28;;;;;;;10.48;7.95;;;5.10;99.90;;;;;;5015804;28;20181;-74
2023/01/24 00:55:56;;;;;;;12.35;9.35;;;5.00;99.90;;;;;;5014041;28;20612;-74
2023/01/24 00:58:23;;;;;;;11.95;8.50;;;5.10;99.90;;;;;;5036104;28;20251;-74
2023/01/24 01:00:49;;;;;;;9.80;8.18;;;5.10;99.90;;;;;;5015822;28;20800;-74
2023/01/24 01:03:20;;;;;;;10.45;7.78;;;5.10;99.90;;;;;;4999777;28;20227;-74
2023/01/24 01:05:46;;;;;;;11.75;8.80;;;5.10;99.90;;;;;;5027482;28;20266;-74
2023/01/24 01:08:15;;;;;;;11.82;7.93;;;5.00;99.90;;;;;;5033826;28;20169;-74
2023/01/24 01:10:43;;;;;;;12.43;8.70;;;5.10;99.90;;;;;;5008801;28;20632;-75
2023/01/24 01:13:12;;;;;;;15.18;9.52;;;5.10;99.90;;;;;;5026111;28;20751;-74
2023/01/24 01:15:38;;;;;;;11.20;8.65;;;5.10;99.90;;;;;;5035023;28;20549;-74
2023/01/24 01:18:06;;;;;;;13.50;8.55;;;5.00;99.90;;;;;;5035798;28;20307;-74
2023/01/24 01:20:34;;;;;;;12.18;9.25;;;5.10;99.90;;;;;;5052125;28;20659;-74
2023/01/24 01:23:00;;;;;;;10.87;7.83;;;5.10;99.90;;;;;;5019184;28;20271;-74
2023/01/24 01:25:26;;;;;;;11.17;7.57;;;5.10;99.90;;;;;;5017538;28;20489;-74
2023/01/24 01:27:52;;;;;;;9.60;7.47;;;5.10;99.90;;;;;;5035851;28;20404;-73
2023/01/24 01:30:18;;;;;;;14.18;8.90;;;5.10;99.90;;;;;;5019004;28;20419;-74
2023/01/24 01:32:45;;;;;;;12.30;8.48;;;5.10;99.90;;;;;;5035444;28;20219;-74
2023/01/24 01:35:11;;;;;;;12.10;8.05;;;5.10;99.90;;;;;;5019073;28;20633;-74
2023/01/24 01:37:37;;;;;;;11.18;8.27;;;5.00;99.90;;;;;;5035389;28;20284;-74
2023/01/24 01:40:04;;;;;;;12.70;8.63;;;5.10;99.90;;;;;;5035038;28;20272;-74
2023/01/24 01:42:53;;;;;;;12.10;9.05;;;5.00;99.90;;;;;;5018923;28;20419;-74
2023/01/24 01:45:31;;;;;;;11.05;7.57;;;5.10;99.90;;;;;;5053152;28;20204;-74
2023/01/24 01:47:57;;;;;;;12.27;8.55;;;5.10;99.90;;;;;;5035290;28;20168;-74
2023/01/24 01:50:31;;;;;;;11.45;8.00;;;5.10;99.90;;;;;;5034941;28;20379;-74
2023/01/24 01:52:57;;;;;;;11.38;7.75;;;5.10;99.90;;;;;;5051562;28;20271;-74
2023/01/24 01:55:28;;;;;;;10.00;7.82;;;5.10;99.90;;;;;;5034875;28;20268;-74
2023/01/24 01:57:54;;;;;;;10.50;8.45;;;5.00;99.90;;;;;;5030932;28;20196;-74
2023/01/24 02:00:27;;;;;;;9.75;7.38;;;5.00;99.90;;;;;;5015261;28;20158;-74
2023/01/24 02:03:37;;;;;;;11.65;8.20;;;5.00;99.90;;;;;;5015039;28;20627;-74
2023/01/24 02:05:51;;;;;;;8.77;7.25;;;5.00;99.90;;;;;;5014962;28;20254;-74
2023/01/24 02:08:21;;;;;;;10.23;7.20;;;5.00;99.90;;;;;;5015109;28;20186;-74
2023/01/24 02:13:43;;;;;;;11.50;7.57;;;5.00;99.90;;;;;;5031428;28;20368;-74
2023/01/24 02:16:16;;;;;;;11.57;8.35;;;5.00;99.90;;;;;;5001109;28;20207;-74
2023/01/24 02:18:44;;;;;;;11.55;8.05;;;5.00;99.90;;;;;;5034663;28;20244;-74
2023/01/24 02:21:17;;;;;;;10.02;8.05;;;5.00;99.90;;;;;;5016331;28;20732;-74
2023/01/24 02:23:47;;;;;;;10.57;7.28;;;5.10;99.90;;;;;;4998733;28;20256;-74
2023/01/24 02:26:24;;;;;;;9.38;7.28;;;5.10;99.90;;;;;;5009555;28;20251;-74
2023/01/24 02:28:58;;;;;;;10.68;6.65;;;5.00;99.90;;;;;;5032210;28;20197;-74
2023/01/24 02:31:25;;;;;;;8.20;6.97;;;5.10;99.90;;;;;;5008728;28;20703;-74
2023/01/24 02:33:53;;;;;;;12.18;8.70;;;5.10;99.90;;;;;;5001455;28;20192;-74
2023/01/24 02:36:29;;;;;;;10.85;7.25;;;5.00;99.90;;;;;;5051904;28;20660;-74
2023/01/24 02:39:15;;;;;;;8.70;6.88;;;5.00;99.90;;;;;;5034049;28;20253;-74
2023/01/24 02:41:47;;;;;;;9.25;6.57;;;5.00;99.90;;;;;;5033308;28;20257;-74
2023/01/24 02:44:22;;;;;;;8.85;7.05;;;5.00;99.90;;;;;;5033985;28;20176;-74
2023/01/24 02:46:53;;;;;;;10.20;7.30;;;5.00;99.90;;;;;;4997825;28;20226;-73
2023/01/24 02:49:22;;;;;;;8.65;6.63;;;5.10;99.90;;;;;;5014128;28;20218;-74
2023/01/24 02:54:37;;;;;;;7.38;6.55;;;5.00;99.90;;;;;;5033627;28;20200;-74
2023/01/24 02:59:50;;;;;;;11.15;7.07;;;5.10;99.90;;;;;;5033496;28;20213;-74
2023/01/24 03:02:20;;;;;;;9.05;6.68;;;5.10;99.90;;;;;;4998289;28;20178;-74
2023/01/24 03:04:51;;;;;;;9.10;6.20;;;5.00;99.90;;;;;;5014313;28;20204;-74
2023/01/24 03:07:19;;;;;;;9.93;6.72;;;5.10;99.90;;;;;;4998676;28;20435;-74
2023/01/24 03:09:53;;;;;;;8.80;6.55;;;5.10;99.90;;;;;;4998414;28;20211;-74
2023/01/24 03:34:32;;;;;;;10.88;6.28;;;5.10;99.90;;;;;;4985804;28;20214;-74
2023/01/24 03:37:01;;;;;;;9.07;6.07;;;5.10;99.90;;;;;;4959130;28;20186;-74
2023/01/24 03:42:12;;;;;;;7.32;5.70;;;5.00;99.90;;;;;;4973847;28;20277;-74
2023/01/24 03:44:41;;;;;;;7.10;5.68;;;5.00;99.90;;;;;;4974604;28;20225;-75
2023/01/24 03:47:07;;;;;;;7.03;5.88;;;5.10;99.90;;;;;;4974586;28;20204;-74
2023/01/24 03:52:29;;;;;;;9.50;6.40;;;5.10;99.90;;;;;;4972449;28;20695;-74
2023/01/24 03:55:02;;;;;;;8.50;5.95;;;5.10;99.90;;;;;;4974768;28;20404;-74
2023/01/24 03:57:29;;;;;;;8.57;5.85;;;5.10;99.90;;;;;;4958535;28;20167;-74
2023/01/24 03:59:58;;;;;;;9.00;5.70;;;5.10;99.90;;;;;;4958760;28;20549;-74
2023/01/24 04:02:24;;;;;;;8.30;5.55;;;5.00;99.90;;;;;;4974214;28;20186;-74
2023/01/24 04:07:36;;;;;;;10.13;6.85;;;5.00;99.90;;;;;;4974746;28;20774;-74
2023/01/24 04:10:05;;;;;;;8.75;6.50;;;5.00;99.90;;;;;;4991298;28;20773;-74
2023/01/24 04:12:37;;;;;;;6.95;5.70;;;5.00;99.90;;;;;;4943555;28;20187;-75
2023/01/24 04:15:04;;;;;;;9.55;6.50;;;5.00;99.90;;;;;;4974196;28;20210;-73
2023/01/24 04:17:35;;;;;;;7.80;6.18;;;5.00;99.90;;;;;;4958496;28;20190;-74
2023/01/24 04:20:04;;;;;;;9.30;6.75;;;5.00;99.90;;;;;;4959333;28;20209;-75
2023/01/24 04:22:30;;;;;;;8.95;6.57;;;5.00;99.90;;;;;;4962331;28;20241;-75
2023/01/24 04:24:59;;;;;;;9.32;6.38;;;5.00;99.90;;;;;;4962172;28;20216;-75
2023/01/24 04:27:31;;;;;;;9.15;6.70;;;5.00;99.90;;;;;;4977822;28;20200;-75
2023/01/24 04:30:10;;;;;;;8.90;6.85;;;5.00;99.90;;;;;;4994065;28;20166;-75
2023/01/24 04:32:38;;;;;;;6.32;5.18;;;5.00;99.90;;;;;;4977599;28;20212;-75
2023/01/24 04:35:28;;;;;;;8.80;6.50;;;5.10;99.90;;;;;;4961248;28;20201;-75
2023/01/24 04:38:02;;;;;;;6.80;5.70;;;5.10;99.90;;;;;;4978023;28;20265;-75
2023/01/24 04:40:42;;;;;;;6.93;5.45;;;5.10;99.90;;;;;;4977830;28;20190;-75
2023/01/24 04:43:08;;;;;;;6.38;4.93;;;5.00;99.90;;;;;;4977832;28;20217;-75
2023/01/24 04:45:35;;;;;;;6.40;5.28;;;5.00;99.90;;;;;;4993809;28;20202;-75
2023/01/24 04:48:09;;;;;;;8.95;6.60;;;5.00;99.90;;;;;;4962467;28;20270;-75
2023/01/24 04:50:35;;;;;;;6.90;5.55;;;5.00;99.90;;;;;;4961345;28;20210;-75
2023/01/24 04:53:04;;;;;;;8.32;6.78;;;5.00;99.90;;;;;;4976765;28;20190;-74
2023/01/24 04:55:31;;;;;;;7.72;5.63;;;5.00;99.90;;;;;;4977525;28;20285;-75
2023/01/24 04:58:00;;;;;;;5.93;5.30;;;5.00;99.90;;;;;;4960933;28;20273;-75
2023/01/24 05:00:26;;;;;;;7.72;5.55;;;5.00;99.90;;;;;;4961606;28;20436;-75
2023/01/24 05:02:52;;;;;;;7.37;5.60;;;5.00;99.90;;;;;;4959442;28;21028;-76
2023/01/24 05:05:20;;;;;;;7.95;5.30;;;5.00;99.90;;;;;;4958366;28;20480;-75
2023/01/24 05:07:46;;;;;;;6.40;5.65;;;5.00;99.90;;;;;;4945540;28;20202;-76
2023/01/24 05:10:16;;;;;;;7.47;5.30;;;5.00;99.90;;;;;;4961042;28;20562;-76
2023/01/24 05:12:46;;;;;;;7.50;6.00;;;5.00;99.90;;;;;;4960069;28;20204;-76
2023/01/24 05:15:21;;;;;;;7.25;5.63;;;5.00;99.90;;;;;;4960705;28;20305;-73
2023/01/24 05:17:48;;;;;;;7.75;5.70;;;5.00;99.90;;;;;;4945444;28;20183;-73
2023/01/24 05:20:18;;;;;;;7.82;6.30;;;5.00;99.90;;;;;;4979806;28;20202;-73
2023/01/24 05:22:48;;;;;;;8.88;6.07;;;5.00;99.90;;;;;;4961485;28;20209;-73
2023/01/24 05:25:18;;;;;;;7.90;5.30;;;5.00;99.90;;;;;;4978355;28;20674;-73
2023/01/24 05:27:46;;;;;;;7.88;5.47;;;5.00;99.90;;;;;;4961808;28;20178;-73
2023/01/24 05:30:14;;;;;;;7.82;6.05;;;5.00;99.90;;;;;;4958334;28;20182;-73
2023/01/24 05:32:40;;;;;;;6.18;4.93;;;5.10;99.90;;;;;;4973795;28;20570;-73
2023/01/24 05:35:07;;;;;;;9.05;6.80;;;5.10;99.90;;;;;;4942128;28;20199;-73
2023/01/24 05:37:37;;;;;;;7.43;5.55;;;5.00;99.90;;;;;;4958119;28;20206;-73
2023/01/24 05:40:04;;;;;;;7.80;5.80;;;5.00;99.90;;;;;;4958088;28;20266;-73
2023/01/24 05:42:32;;;;;;;8.85;6.18;;;5.00;99.90;;;;;;4958149;28;20175;-74
2023/01/24 05:44:58;;;;;;;8.43;6.35;;;5.00;99.90;;;;;;4947418;28;20207;-73
2023/01/24 05:47:27;;;;;;;7.47;5.82;;;5.00;99.90;;;;;;4957961;28;20182;-73
2023/01/24 05:49:53;;;;;;;8.70;5.90;;;5.00;99.90;;;;;;4942049;28;20230;-73
2023/01/24 05:52:22;;;;;;;8.40;6.57;;;5.00;99.90;;;;;;4957772;28;20484;-74
2023/01/24 05:54:57;;;;;;;8.70;5.70;;;5.10;99.90;;;;;;4942111;28;20206;-73
2023/01/24 05:57:36;;;;;;;9.60;6.82;;;5.00;99.90;;;;;;4941861;28;20219;-73
2023/01/24 06:00:18;;;;;;;8.93;6.45;;;5.10;99.90;;;;;;4957779;28;20185;-76
2023/01/24 06:03:10;;;;;;;8.50;6.97;;;5.00;99.90;;;;;;4961467;28;20691;-74
2023/01/24 06:05:36;;;;;;;6.82;5.35;;;5.00;99.90;;;;;;4960936;28;20210;-74
2023/01/24 06:08:02;;;;;;;7.75;6.50;;;5.00;99.90;;;;;;4976834;28;20167;-73
2023/01/24 06:10:28;;;;;;;9.27;6.05;;;5.00;99.90;;;;;;4945132;28;20705;-74
2023/01/24 06:13:02;;;;;;;9.02;6.18;;;5.00;99.90;;;;;;4977962;28;20655;-73
2023/01/24 06:15:28;;;;;;;8.40;7.28;;;5.00;99.90;;;;;;4992912;28;20198;-74
2023/01/24 06:17:55;;;;;;;8.55;7.03;;;5.10;99.90;;;;;;4976794;28;20166;-74
2023/01/24 06:20:23;;;;;;;7.93;6.50;;;5.00;99.90;;;;;;4944889;28;20178;-74
2023/01/24 06:22:56;;;;;;;10.88;7.30;;;5.00;99.90;;;;;;4976770;28;20679;-74
2023/01/24 06:25:25;;;;;;;9.45;7.28;;;5.00;99.90;;;;;;4976358;28;20229;-74
2023/01/24 06:27:52;;;;;;;9.43;7.20;;;5.00;99.90;;;;;;4959137;28;20207;-73
2023/01/24 06:30:19;;;;;;;8.90;6.35;;;5.00;99.90;;;;;;4974551;28;20163;-73
2023/01/24 06:33:06;;;;;;;10.63;7.25;;;5.00;99.90;;;;;;4957328;28;20614;-73
2023/01/24 06:35:53;;;;;;;8.10;6.18;;;5.00;99.90;;;;;;4941436;28;20668;-74
2023/01/24 06:38:24;;;;;;;10.43;6.53;;;5.00;99.90;;;;;;4957274;28;20230;-73
2023/01/24 06:40:56;;;;;;;10.40;7.05;;;5.00;99.90;;;;;;4957099;28;20167;-73
2023/01/24 06:43:23;;;;;;;9.95;7.63;;;5.00;99.90;;;;;;4956733;28;20696;-73
2023/01/24 06:45:49;;;;;;;8.63;6.30;;;5.00;99.90;;;;;;4974266;28;20295;-73
2023/01/24 06:48:18;;;;;;;10.05;6.60;;;5.00;99.90;;;;;;4957157;28;20668;-74
2023/01/24 06:50:44;;;;;;;7.73;6.80;;;5.00;99.90;;;;;;4941153;28;20211;-74
2023/01/24 06:53:11;;;;;;;8.82;6.85;;;5.00;99.90;;;;;;4944723;28;20935;-73
2023/01/24 06:55:37;;;;;;;8.65;6.78;;;5.00;99.90;;;;;;4975856;28;20202;-73
2023/01/24 06:58:04;;;;;;;8.93;6.50;;;5.00;99.90;;;;;;4975806;28;20603;-73
2023/01/24 07:00:30;;;;;;;11.88;7.75;;;5.00;99.90;;;;;;4992665;28;20469;-73
2023/01/24 07:03:02;;;;;;;10.35;7.15;;;5.00;99.90;;;;;;4976232;28;20556;-73
2023/01/24 07:05:29;;;;;;;8.77;6.55;;;5.00;99.90;;;;;;4975949;28;20202;-73
2023/01/24 07:07:55;;;;;;;10.02;7.22;;;5.00;99.90;;;;;;4940843;28;20657;-74
2023/01/24 07:10:21;;;;;;;9.80;7.45;;;5.00;99.90;;;;;;4956279;28;20547;-72
2023/01/24 07:12:49;;;;;;;10.15;7.35;;;5.00;99.90;;;;;;4972400;28;20191;-73
2023/01/24 07:15:18;;;;;;;9.13;7.13;;;5.00;99.90;;;;;;4977052;28;20261;-73
2023/01/24 07:17:44;;;;;;;10.15;7.80;;;5.00;99.90;;;;;;4991169;28;20503;-73
2023/01/24 07:20:12;;;;;;;10.02;7.25;;;5.00;99.90;;;;;;4975315;28;20190;-73
2023/01/24 07:22:43;;;;;;;10.93;7.50;;;5.00;99.90;;;;;;4975383;28;20178;-73
2023/01/24 07:25:14;;;;;;;10.27;7.88;;;5.00;99.90;;;;;;4992011;28;20217;-72
2023/01/24 07:27:46;;;;;;;14.63;7.90;;;5.00;99.90;;;;;;4991605;28;20533;-74
2023/01/24 07:30:12;;;;;;;10.25;7.32;;;5.00;99.90;;;;;;4974757;28;20699;-73
2023/01/24 07:32:41;;;;;;;14.70;8.68;;;5.00;99.90;;;;;;4975353;28;20194;-74
2023/01/24 07:35:07;;;;;;;10.50;7.50;;;5.00;99.90;;;;;;4963134;28;20321;-73
2023/01/24 07:37:33;;;;;;;11.82;7.78;;;5.00;99.90;;;;;;4975312;28;20433;-74
2023/01/24 07:40:02;;;;;;;9.43;7.23;;;5.00;99.90;;;;;;4959076;28;20624;-73
2023/01/24 07:42:28;;;;;;;10.38;7.55;;;5.00;99.90;;;;;;4957432;28;20421;-74
2023/01/24 07:44:59;;;;;;;11.50;8.13;;;5.00;99.90;;;;;;4956106;28;20202;-74
2023/01/24 07:47:30;;;;;;;11.75;9.00;;;5.00;99.90;;;;;;4940338;28;20241;-73
2023/01/24 07:49:59;;;;;;;11.20;8.50;;;5.00;99.90;;;;;;4955587;28;20672;-73
2023/01/24 07:52:25;;;;;;;11.15;8.23;;;5.00;99.90;;;;;;4956243;28;20572;-72
2023/01/24 07:54:50;;;;;;;10.20;7.67;;;5.00;99.90;;;;;;4974700;28;20277;-73
2023/01/24 07:57:16;;;;;;;10.90;8.40;;;5.00;99.90;;;;;;4978924;28;20430;-73
2023/01/24 07:59:42;;;;;;;10.57;8.02;;;5.00;99.90;;;;;;4994530;28;20413;-72
2023/01/24 08:02:11;;;;;;;11.65;7.63;;;5.00;99.90;;;;;;4996036;28;20171;-73
2023/01/24 08:04:38;;;;;;;12.03;8.00;;;5.00;99.90;;;;;;4995947;28;20201;-73
2023/01/24 08:07:16;;;;;;;10.93;8.25;;;5.00;99.90;;;;;;4978365;28;20461;-73
2023/01/24 08:09:42;;;;;;;13.30;9.00;;;5.00;99.90;;;;;;4995433;28;20197;-72
2023/01/24 08:12:08;;;;;;;10.63;8.07;;;5.00;99.90;;;;;;4994572;28;20540;-73
2023/01/24 08:14:34;;;;;;;12.00;8.17;;;4.90;99.90;;;;;;4977689;28;20206;-73
2023/01/24 08:17:00;;;;;;;12.43;9.30;;;5.00;99.90;;;;;;4962220;28;20407;-71
2023/01/24 08:19:29;;;;;;;11.97;7.93;;;5.00;99.90;;;;;;4962426;28;20167;-73
2023/01/24 08:21:55;;;;;;;11.38;8.40;;;5.00;99.90;;;;;;4995609;28;20421;-73
2023/01/24 08:24:21;;;;;;;10.50;7.50;;;5.00;99.90;;;;;;4961742;28;20704;-73
2023/01/24 08:26:50;;;;;;;10.07;7.55;;;5.00;99.90;;;;;;4961040;28;20438;-73
2023/01/24 08:29:19;;;;;;;11.25;8.18;;;5.00;99.90;;;;;;4958634;28;20167;-73
2023/01/24 08:31:45;;;;;;;10.55;8.40;;;5.00;99.90;;;;;;4958551;28;20710;-73
2023/01/24 08:34:11;;;;;;;10.77;7.72;;;5.00;99.90;;;;;;4950721;28;20198;-72
2023/01/24 08:36:37;;;;;;;10.30;7.80;;;5.00;99.90;;;;;;4962192;28;20170;-73
2023/01/24 08:39:04;;;;;;;10.60;8.10;;;5.00;99.90;;;;;;4995139;28;20164;-73
2023/01/24 08:41:30;;;;;;;11.55;8.35;;;5.00;99.90;;;;;;4961745;28;20532;-73
2023/01/24 08:43:58;;;;;;;10.65;8.45;;;5.00;99.90;;;;;;4977811;28;20644;-73
2023/01/24 08:46:25;;;;;;;11.00;8.15;;;5.00;99.90;;;;;;4961962;28;20183;-72
2023/01/24 08:48:53;;;;;;;10.95;8.23;;;5.00;99.90;;;;;;4993985;28;20175;-73
2023/01/24 08:51:19;;;;;;;9.80;7.00;;;5.00;99.90;;;;;;4977486;28;20190;-73
2023/01/24 08:53:45;;;;;;;11.03;8.40;;;5.00;99.90;;;;;;4977508;28;20679;-73
2023/01/24 08:56:12;;;;;;;10.73;8.48;;;5.00;99.90;;;;;;4977499;28;20521;-73
2023/01/24 08:58:38;;;;;;;10.18;7.82;;;5.00;99.90;;;;;;4977424;28;20191;-73
2023/01/24 09:01:08;;;;;;;12.60;9.15;;;5.00;99.90;;;;;;4977546;28;20214;-73
2023/01/24 09:03:35;;;;;;;12.25;9.02;;;5.00;99.90;;;;;;4994779;28;20662;-72
2023/01/24 09:06:01;;;;;;;11.00;7.70;;;5.00;99.90;;;;;;4948974;28;20688;-73
2023/01/24 09:08:27;;;;;;;11.45;8.15;;;5.00;99.90;;;;;;4958285;28;20655;-73
2023/01/24 09:10:56;;;;;;;10.13;7.35;;;5.00;99.90;;;;;;4957746;28;20285;-73
2023/01/24 09:13:22;;;;;;;8.80;7.00;;;5.00;99.90;;;;;;4958001;28;20270;-73
2023/01/24 09:15:48;;;;;;;11.23;8.03;;;5.00;99.90;;;;;;4975185;28;20282;-72
2023/01/24 09:18:14;;;;;;;12.40;8.35;;;5.00;99.90;;;;;;4977001;28;20496;-73
2023/01/24 09:20:45;;;;;;;11.83;8.53;;;5.00;99.90;;;;;;4993393;28;20186;-73
2023/01/24 09:23:14;;;;;;;9.68;8.07;;;5.00;99.90;;;;;;4945151;28;20413;-73
2023/01/24 09:25:41;;;;;;;11.43;8.52;;;5.00;99.90;;;;;;4960946;28;20272;-73
2023/01/24 09:28:09;;;;;;;10.77;8.30;;;5.00;99.90;;;;;;4962700;28;20191;-73
2023/01/24 09:30:35;;;;;;;10.67;8.03;;;5.00;99.90;;;;;;4975134;28;20163;-73
2023/01/24 09:33:06;;;;;;;10.70;7.97;;;5.00;99.90;;;;;;4974782;28;20458;-73
2023/01/24 09:35:36;;;;;;;10.98;8.23;;;5.00;99.90;;;;;;4957659;28;20205;-73
2023/01/24 09:38:04;;;;;;;10.63;7.60;;;5.00;99.90;;;;;;4973706;28;20172;-73
2023/01/24 09:40:43;;;;;;;10.30;7.68;;;5.00;99.90;;;;;;4957469;28;20632;-72
2023/01/24 09:43:33;;;;;;;10.32;8.23;;;5.00;99.90;;;;;;4957303;28;20251;-73
2023/01/24 09:46:31;;;;;;;9.82;6.95;;;5.00;99.90;;;;;;4973492;28;20231;-73
2023/01/24 09:49:19;;;;;;;9.20;7.15;;;5.00;99.90;;;;;;4940920;28;20195;-73
2023/01/24 09:51:53;;;;;;;11.40;7.93;;;5.10;99.90;;;;;;4957139;28;20269;-73
2023/01/24 09:54:38;;;;;;;9.18;7.18;;;5.00;99.90;;;;;;4978819;28;20234;-73
2023/01/24 09:57:16;;;;;;;8.43;7.20;;;5.00;99.90;;;;;;4987985;28;20198;-73
2023/01/24 09:59:46;;;;;;;9.68;7.40;;;5.00;99.90;;;;;;4981842;28;20198;-73
2023/01/24 10:02:18;;;;;;;9.80;7.45;;;5.00;99.90;;;;;;4976327;28;20261;-73
2023/01/24 10:04:45;;;;;;;7.95;6.45;;;5.00;99.90;;;;;;4993759;28;20199;-73
2023/01/24 10:07:55;;;;;;;11.50;7.03;;;5.00;99.90;;;;;;4960145;28;20186;-73
2023/01/24 10:10:40;;;;;;;9.13;6.68;;;5.00;99.90;;;;;;4993810;28;20186;-73
2023/01/24 10:13:34;;;;;;;9.80;6.93;;;5.10;99.90;;;;;;4984623;28;20656;-73
2023/01/24 10:16:15;;;;;;;9.13;6.82;;;5.00;99.90;;;;;;4959811;28;20242;-73
2023/01/24 10:19:14;;;;;;;9.07;6.68;;;5.00;99.90;;;;;;4974854;28;20195;-73
2023/01/24 10:22:18;;;;;;;9.38;7.00;;;5.10;99.90;;;;;;4966223;28;20269;-73
2023/01/24 10:24:54;;;;;;;9.23;6.40;;;5.10;99.90;;;;;;4943390;28;20256;-73
2023/01/24 10:27:33;;;;;;;8.90;6.85;;;5.10;99.90;;;;;;4972736;28;20210;-73
2023/01/24 10:30:18;;;;;;;8.73;6.85;;;5.10;99.90;;;;;;4961715;28;20206;-73
2023/01/24 10:32:47;;;;;;;9.30;6.95;;;5.10;99.90;;;;;;4975779;28;20213;-73
2023/01/24 10:35:31;;;;;;;9.45;6.68;;;5.10;99.90;;;;;;4992253;28;20198;-73
2023/01/24 10:38:00;;;;;;;8.07;6.05;;;5.10;99.90;;;;;;4975442;28;20329;-73
2023/01/24 10:40:26;;;;;;;8.18;6.75;;;5.10;99.90;;;;;;4943950;28;20641;-73
2023/01/24 10:42:53;;;;;;;8.30;6.30;;;5.10;99.90;;;;;;4992106;28;20178;-73
2023/01/24 10:45:57;;;;;;;8.38;6.63;;;5.10;99.90;;;;;;4976049;28;20569;-73
2023/01/24 10:48:40;;;;;;;9.43;6.22;;;5.10;99.90;;;;;;4975776;28;20548;-72
2023/01/24 10:51:21;;;;;;;8.10;6.00;;;5.10;99.90;;;;;;4959479;28;20222;-73
2023/01/24 10:53:47;;;;;;;9.27;6.63;;;5.10;99.90;;;;;;4974601;28;20189;-72
2023/01/24 10:56:20;;;;;;;9.38;7.63;;;5.20;99.90;;;;;;4989611;28;20226;-73
2023/01/24 10:59:04;;;;;;;9.10;7.15;;;5.20;99.90;;;;;;4992551;28;20218;-73
2023/01/24 11:01:37;;;;;;;9.15;7.28;;;5.20;99.90;;;;;;4975654;28;20694;-73
2023/01/24 11:04:33;;;;;;;7.15;6.15;;;5.20;99.90;;;;;;4975294;28;20605;-73
2023/01/24 11:07:01;;;;;;;7.97;5.97;;;5.20;99.90;;;;;;4963817;28;20213;-73
2023/01/24 11:09:30;;;;;;;10.35;7.18;;;5.20;99.90;;;;;;4975297;28;20276;-73
2023/01/24 11:11:58;;;;;;;10.45;6.72;;;5.20;99.90;;;;;;4991424;28;20721;-73
2023/01/24 11:14:31;;;;;;;9.68;7.22;;;5.20;99.90;;;;;;4958073;28;20239;-73
2023/01/24 11:16:59;;;;;;;7.82;6.35;;;5.20;99.90;;;;;;4956592;28;20189;-73
2023/01/24 11:19:39;;;;;;;9.57;7.40;;;5.20;99.90;;;;;;4989524;28;20208;-73
2023/01/24 11:22:25;;;;;;;8.43;7.03;;;5.20;99.90;;;;;;4975411;28;20583;-73
2023/01/24 11:24:56;;;;;;;7.50;6.05;;;5.20;99.90;;;;;;4986759;28;20213;-73
2023/01/24 11:27:23;;;;;;;9.20;6.82;;;5.20;99.90;;;;;;4988459;28;20214;-73
2023/01/24 11:30:33;;;;;;;8.70;6.57;;;5.20;99.90;;;;;;4990038;28;20171;-73
2023/01/24 11:33:26;;;;;;;9.13;6.57;;;5.20;99.90;;;;;;4939570;29;20559;-73
2023/01/24 11:36:01;;;;;;;8.80;6.78;;;5.20;99.90;;;;;;4956282;28;20287;-73
2023/01/24 11:38:42;;;;;;;9.68;7.43;;;5.20;99.90;;;;;;4947246;28;20218;-73
2023/01/24 11:41:24;;;;;;;8.85;6.50;;;5.20;99.90;;;;;;5016891;23;20233;-71
2023/01/24 11:43:55;;;;;;;7.57;6.78;;;5.20;99.90;;;;;;4994694;28;20212;-72
2023/01/24 11:46:38;;;;;;;8.23;6.85;;;5.20;99.90;;;;;;5010761;28;20197;-72
2023/01/24 11:49:10;;;;;;;8.13;6.38;;;5.20;99.90;;;;;;4978620;28;20167;-71
2023/01/24 11:51:42;;;;;;;10.10;7.63;;;5.20;99.90;;;;;;4978479;28;20194;-72
2023/01/24 11:54:33;;;;;;;8.02;6.35;;;5.20;99.90;;;;;;4995028;28;20241;-72
2023/01/24 11:57:08;;;;;;;6.75;5.75;;;5.20;99.90;;;;;;4978688;28;20256;-72
2023/01/24 12:00:01;;;;;;;10.93;7.07;;;5.20;99.90;;;;;;4978095;28;20563;-72
2023/01/24 12:02:53;;;;;;;9.60;6.85;;;5.20;99.90;;;;;;4977566;28;20205;-71
2023/01/24 12:05:37;;;;;;;9.02;6.45;;;5.20;99.90;;;;;;4978519;28;20219;-71
2023/01/24 12:08:03;;;;;;;8.95;6.85;;;5.20;99.90;;;;;;4978006;28;20206;-72
2023/01/24 12:10:56;;;;;;;9.03;6.37;;;5.30;99.90;;;;;;4995438;28;20265;-71
2023/01/24 12:13:45;;;;;;;9.43;7.60;;;5.20;99.90;;;;;;4994347;28;20207;-71
2023/01/24 12:16:31;;;;;;;9.00;7.45;;;5.30;99.90;;;;;;4994069;28;20194;-71
2023/01/24 12:19:25;;;;;;;8.00;6.75;;;5.20;99.90;;;;;;4978084;28;20655;-72
2023/01/24 12:21:57;;;;;;;10.88;6.78;;;5.30;99.90;;;;;;4977465;28;20305;-72
2023/01/24 12:24:28;;;;;;;8.70;6.80;;;5.30;99.90;;;;;;4995417;28;20204;-72
2023/01/24 12:27:10;;;;;;;9.77;7.45;;;5.30;99.90;;;;;;4977816;28;20185;-71
2023/01/24 12:29:44;;;;;;;9.60;6.78;;;5.30;99.90;;;;;;4977230;28;20233;-71
2023/01/24 12:32:47;;;;;;;11.45;7.53;;;5.30;99.90;;;;;;4961279;28;20210;-71
2023/01/24 12:35:25;;;;;;;10.15;7.30;;;5.30;99.90;;;;;;4994908;28;20217;-72
2023/01/24 12:37:55;;;;;;;8.48;7.25;;;5.30;99.90;;;;;;5010228;28;20189;-71
2023/01/24 12:40:36;;;;;;;9.93;7.88;;;5.30;99.90;;;;;;4976909;28;20398;-71
2023/01/24 12:43:25;;;;;;;9.90;7.40;;;5.30;99.90;;;;;;4977800;28;20549;-71
2023/01/24 12:46:04;;;;;;;9.38;7.45;;;5.30;99.90;;;;;;4961321;28;20455;-71
2023/01/24 12:48:41;;;;;;;9.77;8.15;;;5.30;99.90;;;;;;4977631;28;20190;-71
2023/01/24 12:51:39;;;;;;;9.90;7.25;;;5.30;99.90;;;;;;4977323;28;20218;-71
2023/01/24 12:54:20;;;;;;;10.27;8.18;;;5.30;99.90;;;;;;4977238;28;20206;-71
2023/01/24 12:56:59;;;;;;;9.70;7.13;;;5.30;99.90;;;;;;5010088;28;20193;-72
2023/01/24 12:59:30;;;;;;;8.63;7.38;;;5.40;99.90;;;;;;4974093;28;20210;-71
2023/01/24 13:02:24;;;;;;;9.15;7.25;;;5.40;99.90;;;;;;4974695;28;20644;-71
2023/01/24 13:05:17;;;;;;;9.55;7.30;;;5.30;99.90;;;;;;4976817;28;20203;-73
2023/01/24 13:07:57;;;;;;;10.40;7.68;;;5.40;99.90;;;;;;4997064;28;20225;-73
2023/01/24 13:11:01;;;;;;;9.48;7.10;;;5.40;99.90;;;;;;4980531;28;20647;-72
2023/01/24 13:13:40;;;;;;;9.95;6.75;;;5.40;99.90;;;;;;4957695;28;20306;-72
2023/01/24 13:16:24;;;;;;;11.10;7.63;;;5.40;99.90;;;;;;4957948;28;20213;-72
2023/01/24 13:19:10;;;;;;;9.70;7.00;;;5.40;99.90;;;;;;4974038;28;20284;-72
2023/01/24 13:22:03;;;;;;;8.75;7.10;;;5.40;99.90;;;;;;4974476;28;20547;-72
2023/01/24 13:24:48;;;;;;;9.23;7.40;;;5.40;99.90;;;;;;4973772;28;20203;-72
2023/01/24 13:27:24;;;;;;;9.75;7.60;;;5.40;99.90;;;;;;4960741;28;20303;-72
2023/01/24 13:30:20;;;;;;;9.68;7.53;;;5.40;99.90;;;;;;4976273;28;20202;-72
2023/01/24 13:32:49;;;;;;;10.38;8.30;;;5.40;99.90;;;;;;4968439;28;20269;-72
2023/01/24 13:35:24;;;;;;;8.52;7.03;;;5.40;99.90;;;;;;4960204;28;20272;-72
2023/01/24 13:37:54;;;;;;;10.50;7.50;;;5.40;99.90;;;;;;4976060;28;20187;-72
2023/01/24 13:40:34;;;;;;;8.98;6.75;;;5.40;99.90;;;;;;4960568;28;20651;-73
2023/01/24 13:43:24;;;;;;;9.35;7.57;;;5.40;99.90;;;;;;4976265;28;20187;-73
2023/01/24 13:45:53;;;;;;;10.00;7.75;;;5.40;99.90;;;;;;5008322;28;20212;-73
2023/01/24 13:48:55;;;;;;;9.25;7.50;;;5.40;99.90;;;;;;4976272;28;20163;-73
2023/01/24 13:51:33;;;;;;;8.98;8.07;;;5.50;99.90;;;;;;4971937;28;20292;-73
2023/01/24 13:54:08;;;;;;;10.27;7.80;;;5.40;99.90;;;;;;5008861;28;20157;-73
2023/01/24 13:57:14;;;;;;;10.35;7.97;;;5.40;99.90;;;;;;4993475;28;20242;-73
2023/01/24 13:59:42;;;;;;;9.02;7.55;;;5.50;99.90;;;;;;4993432;28;20163;-73
2023/01/24 14:02:29;;;;;;;8.93;7.43;;;5.50;99.90;;;;;;5008729;28;20162;-73